Terminal Aerodrome Forecast
Issued by NWS Mt. Holly, NJ

Home | Current Version | Previous Version | Text Only | Print | Product List | Glossary On
Versions: 1 2 3 4 5 6 7 8 9 10 11 12 13 14 15 16 17 18
000
FTUS41 KPHI 261737
TAFILG
TAF
KILG 261737Z 2618/2718 08012KT P6SM OVC015
     FM270000 07011KT P6SM OVC010
     FM270500 10010KT 5SM -RA BR OVC005
     FM271200 15006KT 5SM BR OVC005
     FM271400 21010KT P6SM BKN015=

USA.gov is the U.S. government's official web portal to all federal, state and local government web resources and services.